createdAt,value
2024-05-09T00:00:35.551Z,5.40
2024-05-09T00:03:10.514Z,5.50
2024-05-09T00:05:42.671Z,5.10
2024-05-09T00:08:10.614Z,4.90
2024-05-09T00:10:39.075Z,4.60
2024-05-09T00:13:07.662Z,4.60
2024-05-09T00:15:35.438Z,5.90
2024-05-09T00:18:02.998Z,4.70
2024-05-09T00:23:08.459Z,4.50
2024-05-09T00:25:35.623Z,4.20
2024-05-09T00:28:02.769Z,4.30
2024-05-09T00:30:34.377Z,4.60
2024-05-09T00:33:07.875Z,4.50
2024-05-09T00:35:36.246Z,4.50
2024-05-09T00:38:03.461Z,4.30
2024-05-09T00:40:41.356Z,5.00
2024-05-09T00:43:14.444Z,4.60
2024-05-09T00:45:42.864Z,4.60
2024-05-09T00:48:14.071Z,4.90
2024-05-09T00:50:44.758Z,4.70
2024-05-09T00:53:13.964Z,4.50
2024-05-09T00:55:41.455Z,4.40
2024-05-09T00:58:10.466Z,4.70
2024-05-09T01:00:40.069Z,3.80
2024-05-09T01:03:12.878Z,4.90
2024-05-09T01:05:42.237Z,4.40
2024-05-09T01:08:10.429Z,4.80
2024-05-09T01:10:37.789Z,4.20
2024-05-09T01:13:05.540Z,4.70
2024-05-09T01:15:33.056Z,4.40
2024-05-09T01:18:11.524Z,4.70
2024-05-09T01:20:42.519Z,4.10
2024-05-09T01:23:12.249Z,4.40
2024-05-09T01:25:39.771Z,4.70
2024-05-09T01:28:06.979Z,5.00
2024-05-09T01:30:36.023Z,4.50
2024-05-09T01:33:09.447Z,4.30
2024-05-09T01:35:39.366Z,4.30
2024-05-09T01:38:06.790Z,4.30
2024-05-09T01:40:38.381Z,4.60
2024-05-09T01:43:10.283Z,4.30
2024-05-09T01:45:38.431Z,4.30
2024-05-09T01:48:05.791Z,3.90
2024-05-09T01:50:38.579Z,3.90
2024-05-09T01:53:09.642Z,4.70
2024-05-09T01:55:36.342Z,4.30
2024-05-09T01:58:02.817Z,4.10
2024-05-09T02:00:38.330Z,4.30
2024-05-09T02:03:14.987Z,4.40
2024-05-09T02:05:44.883Z,4.10
2024-05-09T02:08:21.710Z,3.80
2024-05-09T02:10:49.831Z,3.70
2024-05-09T02:13:17.022Z,4.30
2024-05-09T02:15:44.081Z,3.70
2024-05-09T02:18:11.389Z,4.20
2024-05-09T02:20:40.329Z,3.90
2024-05-09T02:23:09.064Z,3.90
2024-05-09T02:25:35.731Z,3.90
2024-05-09T02:28:02.708Z,3.60
2024-05-09T02:30:38.537Z,3.50
2024-05-09T02:33:10.999Z,3.60
2024-05-09T02:35:39.575Z,3.60
2024-05-09T02:38:06.380Z,3.40
2024-05-09T02:40:37.197Z,3.50
2024-05-09T02:43:12.517Z,3.40
2024-05-09T02:45:41.682Z,3.70
2024-05-09T02:48:13.278Z,3.50
2024-05-09T02:50:40.998Z,3.60
2024-05-09T02:53:08.606Z,3.20
2024-05-09T02:55:36.108Z,3.90
2024-05-09T02:58:02.630Z,3.00
2024-05-09T03:00:37.825Z,3.60
2024-05-09T03:03:08.337Z,3.30
2024-05-09T03:05:36.701Z,3.00
2024-05-09T03:08:04.141Z,3.60
2024-05-09T03:10:35.947Z,4.00
2024-05-09T03:13:08.374Z,3.70
2024-05-09T03:15:35.238Z,3.40
2024-05-09T03:18:01.993Z,3.70
2024-05-09T03:20:34.108Z,3.60
2024-05-09T03:25:30.057Z,2.50
2024-05-09T03:27:56.647Z,3.00
2024-05-09T03:30:36.629Z,3.80
2024-05-09T03:33:13.247Z,3.00
2024-05-09T03:35:40.912Z,3.30
2024-05-09T03:38:07.409Z,3.50
2024-05-09T03:40:33.931Z,3.00
2024-05-09T03:43:00.505Z,3.10
2024-05-09T03:45:26.908Z,3.30
2024-05-09T03:47:53.633Z,2.90
2024-05-09T03:50:26.405Z,3.40
2024-05-09T03:55:27.067Z,2.90
2024-05-09T03:57:53.724Z,3.60
2024-05-09T04:00:30.432Z,3.30
2024-05-09T04:03:02.890Z,3.60
2024-05-09T04:05:30.461Z,3.40
2024-05-09T04:07:57.165Z,3.80
2024-05-09T04:10:30.542Z,3.70
2024-05-09T04:12:59.974Z,3.60
2024-05-09T04:15:26.400Z,3.90
2024-05-09T04:17:52.983Z,3.50
2024-05-09T04:20:29.322Z,4.60
2024-05-09T04:23:04.323Z,4.60
2024-05-09T04:25:33.839Z,4.00
2024-05-09T04:28:00.332Z,3.10
2024-05-09T04:30:36.013Z,3.90
2024-05-09T04:33:07.112Z,3.50
2024-05-09T04:35:34.981Z,3.60
2024-05-09T04:38:01.943Z,3.30
2024-05-09T04:40:33.735Z,3.60
2024-05-09T04:43:03.441Z,3.20
2024-05-09T04:45:30.185Z,3.60
2024-05-09T04:47:57.062Z,3.40
2024-05-09T04:50:32.723Z,3.40
2024-05-09T04:53:03.461Z,3.10
2024-05-09T04:55:30.040Z,3.60
2024-05-09T04:57:56.472Z,3.10
2024-05-09T05:00:32.330Z,3.30
2024-05-09T05:03:09.942Z,3.00
2024-05-09T05:05:39.910Z,3.10
2024-05-09T05:08:14.702Z,3.40
2024-05-09T05:10:42.573Z,3.10
2024-05-09T05:13:20.011Z,3.30
2024-05-09T05:15:49.075Z,2.80
2024-05-09T05:18:16.591Z,2.90
2024-05-09T05:20:44.334Z,2.70
2024-05-09T05:23:13.219Z,2.90
2024-05-09T05:25:40.473Z,2.70
2024-05-09T05:28:07.390Z,3.00
2024-05-09T05:30:36.705Z,3.30
2024-05-09T05:33:05.645Z,2.60
2024-05-09T05:35:32.703Z,2.40
2024-05-09T05:37:59.281Z,2.90
2024-05-09T05:40:33.241Z,2.80
2024-05-09T05:43:10.802Z,2.50
2024-05-09T05:45:38.442Z,3.10
2024-05-09T05:50:36.712Z,2.60
2024-05-09T05:53:09.952Z,2.30
2024-05-09T05:55:39.103Z,2.90
2024-05-09T05:58:08.754Z,2.40
2024-05-09T06:00:38.679Z,2.50
2024-05-09T06:03:11.553Z,2.80
2024-05-09T06:05:39.639Z,2.80
2024-05-09T06:08:07.167Z,2.10
2024-05-09T06:10:38.710Z,2.80
2024-05-09T06:13:10.632Z,2.60
2024-05-09T06:15:37.433Z,2.80
2024-05-09T06:18:09.083Z,2.50
2024-05-09T06:20:38.102Z,3.30
2024-05-09T06:23:09.985Z,2.40
2024-05-09T06:25:38.056Z,2.00
2024-05-09T06:28:05.593Z,2.80
2024-05-09T06:30:41.889Z,2.70
2024-05-09T06:33:12.705Z,2.20
2024-05-09T06:35:41.680Z,2.40
2024-05-09T06:38:08.795Z,2.80
2024-05-09T06:40:38.551Z,2.30
2024-05-09T06:43:18.510Z,2.80
2024-05-09T06:45:52.684Z,2.70
2024-05-09T06:48:20.719Z,2.60
2024-05-09T06:50:47.925Z,2.30
2024-05-09T06:53:15.384Z,3.30
2024-05-09T06:55:42.414Z,2.80
2024-05-09T06:58:09.213Z,2.90
2024-05-09T07:00:39.593Z,3.30
2024-05-09T07:03:16.987Z,3.10
2024-05-09T07:05:46.519Z,2.90
2024-05-09T07:08:14.268Z,3.00
2024-05-09T07:10:41.285Z,3.50
2024-05-09T07:13:11.542Z,5.20
2024-05-09T07:15:38.967Z,3.90
2024-05-09T07:18:23.895Z,3.80
2024-05-09T07:20:51.053Z,3.50
2024-05-09T07:23:18.425Z,3.20
2024-05-09T07:25:45.515Z,3.10
2024-05-09T07:28:17.138Z,3.00
2024-05-09T07:30:44.765Z,2.90
2024-05-09T07:33:20.056Z,3.10
2024-05-09T07:35:48.304Z,2.60
2024-05-09T07:38:15.097Z,3.00
2024-05-09T07:40:41.911Z,3.00
2024-05-09T07:43:11.482Z,3.30
2024-05-09T07:45:48.511Z,2.80
2024-05-09T07:53:47.674Z,2.70
2024-05-09T07:56:19.463Z,3.50
2024-05-09T07:58:49.866Z,2.90
2024-05-09T08:01:16.452Z,2.90
2024-05-09T08:03:43.152Z,3.40
2024-05-09T08:06:09.963Z,3.50
2024-05-09T08:08:36.456Z,3.40
2024-05-09T08:11:03.067Z,3.50
2024-05-09T08:13:29.764Z,3.10
2024-05-09T08:15:56.229Z,2.90
2024-05-09T08:18:23.105Z,2.90
2024-05-09T08:20:50.846Z,3.70
2024-05-09T08:23:17.675Z,2.70
2024-05-09T08:25:44.585Z,2.90
2024-05-09T08:28:11.920Z,2.80
2024-05-09T08:30:38.846Z,2.30
2024-05-09T08:33:07.035Z,2.50
2024-05-09T08:35:35.109Z,2.80
2024-05-09T08:38:06.534Z,2.50
2024-05-09T08:40:36.377Z,3.30
2024-05-09T08:43:10.472Z,3.60
2024-05-09T08:45:41.848Z,3.10
2024-05-09T08:48:08.738Z,2.30
2024-05-09T08:50:40.259Z,2.90
2024-05-09T08:53:09.219Z,2.10
2024-05-09T08:55:40.360Z,2.20
2024-05-09T09:00:41.730Z,1.70
2024-05-09T09:03:11.284Z,2.50
2024-05-09T09:05:40.327Z,2.00
2024-05-09T09:08:08.428Z,1.70
2024-05-09T09:10:36.383Z,2.20
2024-05-09T09:13:04.722Z,2.30
2024-05-09T09:15:31.904Z,2.00
2024-05-09T09:18:00.197Z,1.80
2024-05-09T09:20:34.204Z,1.80
2024-05-09T09:23:03.761Z,1.80
2024-05-09T09:27:58.114Z,1.70
2024-05-09T09:30:35.300Z,1.60
2024-05-09T09:33:05.490Z,1.70
2024-05-09T09:35:32.435Z,1.40
2024-05-09T09:38:02.096Z,1.40
2024-05-09T09:40:44.974Z,2.20
2024-05-09T09:43:19.594Z,1.50
2024-05-09T09:45:53.854Z,1.30
2024-05-09T09:48:22.636Z,1.60
2024-05-09T09:50:51.507Z,1.70
2024-05-09T09:53:19.166Z,1.30
2024-05-09T09:55:46.311Z,1.60
2024-05-09T10:00:41.560Z,1.60
2024-05-09T10:03:08.493Z,1.50
2024-05-09T10:05:35.617Z,2.20
2024-05-09T10:08:09.670Z,1.70
2024-05-09T10:10:36.783Z,1.80
2024-05-09T10:13:04.910Z,1.80
2024-05-09T10:15:52.413Z,1.70
2024-05-09T10:18:25.060Z,1.90
2024-05-09T10:20:54.325Z,2.10
2024-05-09T10:23:25.281Z,2.00
2024-05-09T10:26:09.992Z,2.00
2024-05-09T10:28:41.841Z,1.80
2024-05-09T10:31:14.307Z,1.50
2024-05-09T10:33:50.759Z,1.90
2024-05-09T10:36:20.275Z,2.40
2024-05-09T10:38:48.803Z,1.60
2024-05-09T10:41:19.138Z,1.90
2024-05-09T10:43:47.219Z,1.80
2024-05-09T10:46:14.737Z,1.80
2024-05-09T10:48:43.309Z,1.60
2024-05-09T10:51:10.732Z,1.70
2024-05-09T10:53:45.083Z,2.00
2024-05-09T10:56:13.632Z,1.80
2024-05-09T10:58:40.424Z,2.20
2024-05-09T11:01:08.879Z,2.10
2024-05-09T11:03:36.563Z,1.50
2024-05-09T11:06:04.232Z,1.80
2024-05-09T11:08:32.297Z,2.00
2024-05-09T11:10:59.702Z,2.10
2024-05-09T11:13:31.514Z,1.40
2024-05-09T11:15:59.863Z,1.90
2024-05-09T11:18:30.670Z,1.50
2024-05-09T11:21:00.228Z,1.40
2024-05-09T11:23:30.689Z,2.00
2024-05-09T11:25:58.480Z,1.70
2024-05-09T11:28:28.125Z,2.10
2024-05-09T11:31:05.261Z,1.40
2024-05-09T11:33:32.182Z,1.60
2024-05-09T11:35:58.988Z,1.70
2024-05-09T11:38:25.632Z,1.50
2024-05-09T11:40:52.135Z,1.50
2024-05-09T11:43:18.596Z,1.80
2024-05-09T11:45:45.203Z,2.80
2024-05-09T11:48:12.150Z,2.10
2024-05-09T11:50:39.152Z,1.70
2024-05-09T11:53:06.125Z,1.90
2024-05-09T11:55:36.091Z,1.80
2024-05-09T11:58:03.083Z,1.80
2024-05-09T12:03:05.705Z,1.60
2024-05-09T12:05:33.746Z,1.70
2024-05-09T12:08:02.046Z,1.60
2024-05-09T12:10:33.662Z,1.70
2024-05-09T12:13:04.560Z,1.60
2024-05-09T12:15:32.999Z,1.20
2024-05-09T12:18:02.724Z,1.50
2024-05-09T12:20:36.661Z,1.50
2024-05-09T12:23:06.407Z,2.30
2024-05-09T12:25:33.117Z,1.20
2024-05-09T12:28:00.183Z,1.70
2024-05-09T12:30:35.468Z,1.40
2024-05-09T12:33:07.269Z,1.40
2024-05-09T12:35:33.894Z,1.80
2024-05-09T12:38:00.481Z,1.40
2024-05-09T12:43:07.683Z,1.60
2024-05-09T12:45:34.871Z,1.30
2024-05-09T12:48:01.566Z,1.20
2024-05-09T12:50:32.680Z,1.50
2024-05-09T12:53:02.175Z,1.90
2024-05-09T12:55:33.895Z,1.50
2024-05-09T12:58:08.548Z,1.50
2024-05-09T13:00:35.481Z,1.50
2024-05-09T13:05:29.337Z,1.50
2024-05-09T13:07:57.128Z,1.50
2024-05-09T13:10:31.122Z,1.10
2024-05-09T13:13:01.293Z,1.40
2024-05-09T13:15:30.256Z,2.20
2024-05-09T13:18:00.315Z,2.80
2024-05-09T13:20:33.423Z,1.30
2024-05-09T13:25:30.034Z,1.90
2024-05-09T13:27:57.598Z,1.30
2024-05-09T13:32:54.619Z,1.70
2024-05-09T13:35:21.308Z,1.60
2024-05-09T13:37:48.222Z,1.40
2024-05-09T13:40:14.886Z,1.50
2024-05-09T13:42:45.621Z,1.20
2024-05-09T13:45:13.505Z,1.90
2024-05-09T13:47:40.328Z,2.60
2024-05-09T13:50:11.415Z,2.10
2024-05-09T13:52:40.555Z,2.30
2024-05-09T13:55:07.476Z,1.40
2024-05-09T13:57:34.245Z,1.60
2024-05-09T14:00:00.832Z,2.20
2024-05-09T14:04:54.088Z,1.80
2024-05-09T14:07:20.937Z,1.50
2024-05-09T14:09:47.663Z,1.60
2024-05-09T14:14:40.793Z,1.70
2024-05-09T14:17:07.960Z,1.50
2024-05-09T14:19:34.678Z,1.40
2024-05-09T14:22:01.638Z,1.50
2024-05-09T14:24:28.265Z,1.40
2024-05-09T14:26:54.782Z,1.30
2024-05-09T14:29:21.227Z,1.30
2024-05-09T14:31:47.661Z,1.40
2024-05-09T14:34:14.469Z,1.40
2024-05-09T14:36:41.156Z,1.30
2024-05-09T14:39:08.072Z,1.30
2024-05-09T14:41:34.489Z,1.80
2024-05-09T14:44:00.877Z,2.60
2024-05-09T14:46:27.503Z,2.10
2024-05-09T14:48:55.428Z,1.50
2024-05-09T14:51:22.271Z,1.30
2024-05-09T14:53:48.715Z,1.30
2024-05-09T14:56:15.251Z,2.30
2024-05-09T14:58:41.961Z,1.90
2024-05-09T15:01:08.646Z,1.20
2024-05-09T15:03:35.464Z,1.10
2024-05-09T15:08:29.259Z,1.20
2024-05-09T15:10:55.981Z,1.60
2024-05-09T15:13:24.723Z,1.50
2024-05-09T15:15:51.578Z,1.80
2024-05-09T15:20:45.866Z,1.20
2024-05-09T15:23:12.976Z,1.20
2024-05-09T15:25:40.125Z,1.10
2024-05-09T15:28:08.057Z,1.40
2024-05-09T15:30:35.396Z,1.30
2024-05-09T15:33:06.470Z,1.20
2024-05-09T15:35:34.448Z,1.00
2024-05-09T15:40:37.638Z,1.30
2024-05-09T15:43:08.855Z,1.10
2024-05-09T15:45:36.846Z,1.00
2024-05-09T15:50:38.077Z,0.80
2024-05-09T15:53:09.457Z,1.10
2024-05-09T15:55:37.018Z,1.20
2024-05-09T15:58:05.179Z,1.20
2024-05-09T16:00:37.940Z,1.30
2024-05-09T16:03:09.315Z,1.60
2024-05-09T16:05:37.222Z,1.60
2024-05-09T16:08:06.108Z,1.60
2024-05-09T16:10:34.592Z,1.30
2024-05-09T16:13:02.253Z,1.50
2024-05-09T16:15:29.302Z,1.20
2024-05-09T16:17:56.039Z,1.00
2024-05-09T16:20:33.985Z,1.40
2024-05-09T16:23:06.055Z,1.10
2024-05-09T16:25:32.698Z,1.20
2024-05-09T16:27:59.704Z,0.90
2024-05-09T16:33:03.491Z,1.20
2024-05-09T16:35:30.851Z,1.00
2024-05-09T16:37:57.458Z,1.00
2024-05-09T16:40:33.087Z,1.20
2024-05-09T16:43:04.547Z,1.10
2024-05-09T16:45:31.554Z,1.40
2024-05-09T16:50:31.010Z,1.30
2024-05-09T16:52:59.908Z,1.10
2024-05-09T16:55:27.016Z,1.20
2024-05-09T16:57:54.678Z,1.20
2024-05-09T17:00:31.258Z,1.10
2024-05-09T17:03:08.934Z,1.20
2024-05-09T17:05:36.454Z,1.10
2024-05-09T17:08:04.137Z,1.30
2024-05-09T17:10:34.110Z,1.20
2024-05-09T17:13:04.021Z,1.20
2024-05-09T17:15:32.219Z,1.10
2024-05-09T17:17:59.343Z,1.10
2024-05-09T17:20:32.558Z,1.10
2024-05-09T17:23:02.820Z,1.10
2024-05-09T17:25:29.746Z,1.40
2024-05-09T17:27:59.093Z,1.20
2024-05-09T17:30:32.289Z,1.40
2024-05-09T17:33:04.003Z,1.20
2024-05-09T17:35:31.784Z,1.30
2024-05-09T17:38:06.510Z,1.20
2024-05-09T17:40:36.342Z,1.30
2024-05-09T17:43:06.216Z,1.40
2024-05-09T17:45:34.067Z,1.30
2024-05-09T17:48:01.327Z,1.50
2024-05-09T17:50:34.879Z,1.10
2024-05-09T17:53:04.023Z,1.10
2024-05-09T17:55:30.541Z,1.30
2024-05-09T17:57:57.467Z,1.50
2024-05-09T18:00:33.709Z,1.10
2024-05-09T18:03:06.473Z,1.70
2024-05-09T18:05:35.053Z,1.40
2024-05-09T18:08:02.071Z,1.50
2024-05-09T18:10:35.330Z,1.30
2024-05-09T18:13:05.613Z,2.10
2024-05-09T18:15:32.555Z,1.80
2024-05-09T18:17:59.755Z,1.30
2024-05-09T18:20:37.359Z,2.00
2024-05-09T18:23:10.541Z,1.20
2024-05-09T18:25:37.384Z,1.50
2024-05-09T18:28:04.827Z,1.90
2024-05-09T18:30:35.165Z,1.50
2024-05-09T18:33:07.955Z,2.00
2024-05-09T18:35:35.718Z,1.80
2024-05-09T18:38:03.140Z,1.40
2024-05-09T18:40:34.502Z,1.70
2024-05-09T18:43:06.132Z,1.70
2024-05-09T18:45:34.216Z,1.80
2024-05-09T18:48:01.018Z,1.70
2024-05-09T18:50:34.489Z,1.80
2024-05-09T18:53:12.407Z,1.80
2024-05-09T18:55:43.168Z,1.70
2024-05-09T18:58:09.726Z,1.70
2024-05-09T19:00:39.134Z,1.80
2024-05-09T19:03:10.935Z,1.70
2024-05-09T19:05:40.827Z,1.80
2024-05-09T19:08:08.456Z,1.90
2024-05-09T19:10:37.087Z,1.40
2024-05-09T19:13:09.306Z,1.70
2024-05-09T19:15:39.677Z,1.50
2024-05-09T19:18:07.645Z,1.70
2024-05-09T19:20:36.325Z,1.60
2024-05-09T19:23:05.194Z,1.60
2024-05-09T19:25:32.679Z,1.60
2024-05-09T19:28:00.226Z,1.40
2024-05-09T19:30:36.424Z,1.70
2024-05-09T19:33:08.092Z,1.70
2024-05-09T19:35:35.026Z,1.40
2024-05-09T19:38:02.045Z,2.00
2024-05-09T19:40:31.888Z,1.50
2024-05-09T19:43:04.748Z,1.70
2024-05-09T19:45:33.784Z,1.60
2024-05-09T19:48:01.725Z,1.80
2024-05-09T19:50:36.970Z,1.90
2024-05-09T19:53:09.876Z,1.70
2024-05-09T19:55:36.911Z,2.30
2024-05-09T19:58:05.059Z,1.70
2024-05-09T20:00:39.686Z,1.90
2024-05-09T20:03:09.241Z,2.10
2024-05-09T20:05:37.146Z,2.00
2024-05-09T20:08:04.605Z,2.60
2024-05-09T20:10:33.460Z,1.70
2024-05-09T20:13:02.332Z,2.20
2024-05-09T20:17:56.032Z,2.20
2024-05-09T20:20:32.892Z,2.10
2024-05-09T20:23:05.536Z,2.40
2024-05-09T20:25:31.856Z,2.30
2024-05-09T20:27:58.366Z,2.40
2024-05-09T20:30:31.341Z,2.20
2024-05-09T20:33:00.472Z,2.00
2024-05-09T20:35:31.363Z,1.90
2024-05-09T20:37:59.026Z,2.10
2024-05-09T20:40:31.763Z,2.20
2024-05-09T20:43:01.936Z,1.90
2024-05-09T20:45:28.507Z,1.80
2024-05-09T20:47:55.288Z,2.20
2024-05-09T20:50:29.180Z,1.80
2024-05-09T20:53:03.611Z,1.90
2024-05-09T20:55:30.450Z,1.80
2024-05-09T20:57:57.440Z,1.90
2024-05-09T21:00:33.744Z,1.70
2024-05-09T21:03:06.015Z,1.80
2024-05-09T21:05:33.107Z,1.90
2024-05-09T21:08:00.269Z,1.90
2024-05-09T21:10:29.687Z,1.70
2024-05-09T21:12:58.407Z,1.70
2024-05-09T21:15:25.026Z,1.60
2024-05-09T21:17:51.524Z,1.60
2024-05-09T21:20:23.958Z,1.70
2024-05-09T21:22:55.887Z,2.20
2024-05-09T21:25:22.566Z,1.90
2024-05-09T21:27:49.130Z,1.70
2024-05-09T21:30:22.411Z,1.80
2024-05-09T21:32:58.029Z,1.70
2024-05-09T21:37:51.391Z,2.10
2024-05-09T21:40:26.983Z,1.90
2024-05-09T21:43:00.312Z,1.70
2024-05-09T21:45:27.073Z,1.90
2024-05-09T21:47:53.699Z,1.80
2024-05-09T21:50:27.579Z,1.90
2024-05-09T21:52:58.768Z,1.70
2024-05-09T21:55:25.419Z,2.50
2024-05-09T21:57:52.074Z,1.90
2024-05-09T22:00:28.636Z,2.30
2024-05-09T22:03:02.139Z,2.90
2024-05-09T22:05:29.134Z,3.30
2024-05-09T22:07:56.249Z,2.40
2024-05-09T22:10:26.984Z,2.80
2024-05-09T22:12:59.766Z,2.70
2024-05-09T22:15:26.912Z,2.30
2024-05-09T22:17:53.741Z,2.20
2024-05-09T22:20:28.781Z,2.20
2024-05-09T22:23:02.912Z,2.60
2024-05-09T22:25:30.853Z,2.50
2024-05-09T22:27:58.208Z,2.40
2024-05-09T22:30:33.775Z,2.40
2024-05-09T22:33:05.170Z,2.30
2024-05-09T22:35:32.073Z,2.20
2024-05-09T22:37:58.749Z,2.40
2024-05-09T22:40:37.856Z,2.10
2024-05-09T22:43:12.098Z,2.40
2024-05-09T22:45:38.787Z,2.50
2024-05-09T22:48:06.187Z,2.20
2024-05-09T22:53:00.527Z,1.80
2024-05-09T22:55:27.016Z,1.80
2024-05-09T22:57:53.454Z,2.20
2024-05-09T23:00:29.131Z,1.80
2024-05-09T23:03:02.138Z,1.80
2024-05-09T23:05:29.010Z,2.20
2024-05-09T23:07:55.778Z,1.90
2024-05-09T23:10:30.836Z,2.00
2024-05-09T23:13:01.944Z,2.40
2024-05-09T23:15:28.829Z,1.90
2024-05-09T23:17:55.801Z,2.80
2024-05-09T23:23:04.941Z,1.80
2024-05-09T23:25:31.419Z,2.00
2024-05-09T23:27:57.991Z,1.80
2024-05-09T23:30:33.774Z,2.10
2024-05-09T23:33:05.433Z,2.20
2024-05-09T23:35:32.188Z,2.00
2024-05-09T23:37:58.568Z,2.00
2024-05-09T23:40:36.747Z,2.40
2024-05-09T23:43:07.524Z,1.90
2024-05-09T23:45:34.602Z,1.80
2024-05-09T23:48:01.502Z,2.10
2024-05-09T23:50:34.425Z,2.00
2024-05-09T23:53:04.881Z,1.90
2024-05-09T23:55:31.934Z,1.60
2024-05-09T23:57:58.815Z,1.80
